Mentor, OH (44061)

3:24 AM EDT on July 01, 2015 (GMT -0400)
Mentorfire5 | | Change Station
CLOSE
Current Station
Personal Weather Station
Location: Mentor, OH
Elevation: 620 ft
Nearby Weather Stations

Elev 620 ft 41.70 °N, 81.34 °W | Updated 13 minutes ago

Overcast
Overcast
65.1 °F
Feels Like 65.1 °F
N
4.0
Wind Variable Wind from SSW
Gusts 6.0 mph

Today
High -- | Low -- °F
--% Chance of Precip.
Yesterday
High -- | Low -- °F
Precip. -- in
5:54 AM 9:03 PM
Waxing Gibbous, 99% visible
Pressure 29.76 in
Visibility 10.0 miles
Clouds Mostly Cloudy 4500 ft
Dew Point 63 °F
Humidity 94%
Rainfall 0.29 in
Snow Depth Not available.
UV 0 out of 12
Pollen .40 out of 12
Air Quality Not available.
Flu Activity Not available.
METAR KBKL 010653Z 22009KT 10SM BKN045 19/16 A2977 RMK AO2 SLP078 T01890161

More Conditions Fewer Conditions

Pressure 29.76 in
Visibility 10.0 miles
Clouds Mostly Cloudy 4500 ft
Dew Point 63 °F
Humidity 94%
Rainfall 0.29 in
Snow Depth Not available.
UV 0 out of 12
Pollen .40 out of 12
Air Quality Not available.
Flu Activity Not available.
METAR KBKL 010653Z 22009KT 10SM BKN045 19/16 A2977 RMK AO2 SLP078 T01890161

More Conditions Fewer Conditions

10-Day Weather Forecast

×

Almanac

Astronomy

Jul. 01, 2015 Rise Set
Actual Time
Civil Twilight
Nautical Twilight
Astronomical Twilight
Moon
Length of Visible Light
Length of Day
Tomorrow will be .
, % of the Moon is Illuminated

Today's Extremes

State Highs State Lows

Community

WunderPhotos

Upload Photos

1,834,163 photos uploaded!

WunderBlogs® & News

Nearby

Air Quality

  Air Quality AQ Index Pollutant
Not available.

Snow Depth

Station Depth Elevation

Earthquake Activity

City Distance Mag. Time & Date
Minimum magnitude displayed is 2.5.

Coastal Water Temperatures

Place Temperature

Stations

Nearby Weather Stations

Station Location Temp. Windchill Dew Point Humidity Wind Precip. Elev Updated Type